createdAt,value
2018-09-26T00:01:29.024Z,98742.84
2018-09-26T00:04:02.031Z,98739.41
2018-09-26T00:06:30.859Z,98738.81
2018-09-26T00:08:59.420Z,98739.06
2018-09-26T00:11:27.937Z,98742.16
2018-09-26T00:13:56.482Z,98740.58
2018-09-26T00:16:25.020Z,98731.31
2018-09-26T00:18:53.897Z,98721.13
2018-09-26T00:21:22.430Z,98714.39
2018-09-26T00:23:50.990Z,98711.05
2018-09-26T00:26:19.858Z,98720.64
2018-09-26T00:28:48.398Z,98714.04
2018-09-26T00:31:16.918Z,98713.90
2018-09-26T00:33:45.491Z,98715.05
2018-09-26T00:36:14.055Z,98715.92
2018-09-26T00:38:42.552Z,98718.55
2018-09-26T00:41:11.097Z,98718.48
2018-09-26T00:43:39.667Z,98720.97
2018-09-26T00:46:09.066Z,98728.08
2018-09-26T00:48:37.682Z,98724.90
2018-09-26T00:51:06.494Z,98731.27
2018-09-26T00:53:35.095Z,98727.84
2018-09-26T00:56:03.678Z,98733.83
2018-09-26T00:58:32.338Z,98733.86
2018-09-26T01:01:01.150Z,98733.09
2018-09-26T01:03:29.718Z,98744.11
2018-09-26T01:05:58.235Z,98751.17
2018-09-26T01:08:26.773Z,98743.81
2018-09-26T01:10:55.340Z,98737.70
2018-09-26T01:13:23.866Z,98731.45
2018-09-26T01:15:52.430Z,98729.06
2018-09-26T01:18:20.967Z,98726.44
2018-09-26T01:20:50.710Z,98731.35
2018-09-26T01:23:19.239Z,98725.61
2018-09-26T01:25:47.803Z,98723.22
2018-09-26T01:28:16.334Z,98726.83
2018-09-26T01:30:44.895Z,98727.13
2018-09-26T01:33:13.433Z,98725.92
2018-09-26T01:35:41.997Z,98736.77
2018-09-26T01:38:10.554Z,98737.27
2018-09-26T01:40:39.118Z,98746.50
2018-09-26T01:43:07.655Z,98745.97
2018-09-26T01:45:36.223Z,98748.11
2018-09-26T01:48:04.921Z,98740.06
2018-09-26T01:50:33.488Z,98733.78
2018-09-26T01:53:02.005Z,98728.72
2018-09-26T01:55:30.571Z,98722.84
2018-09-26T01:57:59.098Z,98720.05
2018-09-26T02:00:27.686Z,98713.23
2018-09-26T02:02:56.206Z,98708.84
2018-09-26T02:05:24.792Z,98710.67
2018-09-26T02:07:53.328Z,98712.12
2018-09-26T02:10:21.881Z,98709.52
2018-09-26T02:12:50.402Z,98702.05
2018-09-26T02:15:18.965Z,98704.59
2018-09-26T02:17:47.558Z,98704.92
2018-09-26T02:20:16.149Z,98695.95
2018-09-26T02:22:44.699Z,98685.00
2018-09-26T02:25:13.276Z,98676.67
2018-09-26T02:27:41.818Z,98677.54
2018-09-26T02:30:10.387Z,98670.69
2018-09-26T02:32:38.982Z,98672.23
2018-09-26T02:35:07.586Z,98672.06
2018-09-26T02:37:36.141Z,98664.78
2018-09-26T02:40:04.791Z,98655.81
2018-09-26T02:42:33.358Z,98656.58
2018-09-26T02:45:01.909Z,98653.58
2018-09-26T02:47:30.457Z,98645.09
2018-09-26T02:49:58.998Z,98639.98
2018-09-26T02:52:27.576Z,98637.88
2018-09-26T02:54:56.106Z,98627.16
2018-09-26T02:57:24.870Z,98623.46
2018-09-26T02:59:53.410Z,98626.36
2018-09-26T03:02:22.202Z,98623.56
2018-09-26T03:04:50.821Z,98624.39
2018-09-26T03:07:19.386Z,98625.56
2018-09-26T03:09:47.962Z,98615.86
2018-09-26T03:12:16.530Z,98603.80
2018-09-26T03:14:45.072Z,98609.49
2018-09-26T03:17:13.663Z,98599.91
2018-09-26T03:19:42.237Z,98603.05
2018-09-26T03:22:10.818Z,98607.16
2018-09-26T03:24:39.357Z,98613.20
2018-09-26T03:27:07.949Z,98612.99
2018-09-26T03:29:36.482Z,98614.55
2018-09-26T03:32:05.067Z,98616.89
2018-09-26T03:34:33.615Z,98615.05
2018-09-26T03:37:02.166Z,98618.73
2018-09-26T03:39:30.721Z,98633.10
2018-09-26T03:41:59.294Z,98632.22
2018-09-26T03:44:27.859Z,98644.41
2018-09-26T03:46:56.441Z,98642.94
2018-09-26T03:49:24.995Z,98639.44
2018-09-26T03:51:53.586Z,98633.04
2018-09-26T03:54:22.130Z,98621.70
2018-09-26T03:56:50.717Z,98618.83
2018-09-26T03:59:19.284Z,98612.51
2018-09-26T04:01:47.867Z,98607.94
2018-09-26T04:04:16.399Z,98605.34
2018-09-26T04:06:44.974Z,98607.86
2018-09-26T04:09:13.513Z,98599.22
2018-09-26T04:11:42.077Z,98602.22
2018-09-26T04:14:10.667Z,98609.95
2018-09-26T04:16:42.476Z,98617.02
2018-09-26T04:19:18.417Z,98622.40
2018-09-26T04:21:50.766Z,98612.19
2018-09-26T04:24:23.161Z,98618.28
2018-09-26T04:26:54.676Z,98618.28
2018-09-26T04:29:24.022Z,98617.44
2018-09-26T04:31:52.667Z,98606.47
2018-09-26T04:34:21.209Z,98617.90
2018-09-26T04:36:53.616Z,98614.17
2018-09-26T04:39:26.391Z,98606.20
2018-09-26T04:41:55.043Z,98608.53
2018-09-26T04:44:23.609Z,98608.13
2018-09-26T04:46:52.564Z,98623.81
2018-09-26T04:49:23.055Z,98632.14
2018-09-26T04:51:51.622Z,98629.63
2018-09-26T04:54:20.157Z,98621.52
2018-09-26T04:56:48.852Z,98621.11
2018-09-26T04:59:17.409Z,98627.27
2018-09-26T05:01:45.982Z,98632.25
2018-09-26T05:04:14.546Z,98631.00
2018-09-26T05:06:43.111Z,98633.66
2018-09-26T05:09:11.930Z,98645.79
2018-09-26T05:11:40.482Z,98652.92
2018-09-26T05:14:09.355Z,98646.47
2018-09-26T05:16:37.913Z,98656.62
2018-09-26T05:19:07.018Z,98659.31
2018-09-26T05:21:35.990Z,98660.95
2018-09-26T05:24:04.587Z,98660.83
2018-09-26T05:26:33.162Z,98667.30
2018-09-26T05:29:01.823Z,98664.83
2018-09-26T05:31:30.389Z,98672.97
2018-09-26T05:33:58.951Z,98669.30
2018-09-26T05:36:27.581Z,98671.45
2018-09-26T05:38:56.182Z,98670.29
2018-09-26T05:41:24.736Z,98676.57
2018-09-26T05:43:53.329Z,98668.95
2018-09-26T05:46:22.157Z,98668.94
2018-09-26T05:48:50.821Z,98667.44
2018-09-26T05:51:19.349Z,98659.63
2018-09-26T05:53:47.905Z,98666.38
2018-09-26T05:56:16.765Z,98668.48
2018-09-26T05:58:45.338Z,98669.06
2018-09-26T06:01:13.871Z,98664.66
2018-09-26T06:03:42.441Z,98652.73
2018-09-26T06:06:11.022Z,98650.35
2018-09-26T06:08:39.586Z,98660.06
2018-09-26T06:11:08.136Z,98665.48
2018-09-26T06:13:36.714Z,98662.97
2018-09-26T06:16:05.294Z,98658.59
2018-09-26T06:18:34.150Z,98658.89
2018-09-26T06:21:02.697Z,98655.14
2018-09-26T06:23:31.275Z,98660.28
2018-09-26T06:25:59.837Z,98666.23
2018-09-26T06:28:28.451Z,98666.73
2018-09-26T06:30:57.021Z,98660.45
2018-09-26T06:33:25.594Z,98657.00
2018-09-26T06:35:54.167Z,98656.38
2018-09-26T06:38:22.927Z,98654.53
2018-09-26T06:40:51.503Z,98648.45
2018-09-26T06:43:20.082Z,98655.31
2018-09-26T06:45:48.928Z,98647.97
2018-09-26T06:48:17.957Z,98648.55
2018-09-26T06:50:46.546Z,98639.98
2018-09-26T06:53:15.263Z,98631.59
2018-09-26T06:55:43.823Z,98633.94
2018-09-26T06:58:12.386Z,98633.98
2018-09-26T07:00:41.114Z,98638.31
2018-09-26T07:03:09.659Z,98634.75
2018-09-26T07:05:38.220Z,98639.70
2018-09-26T07:08:07.050Z,98639.84
2018-09-26T07:10:35.618Z,98634.05
2018-09-26T07:13:04.193Z,98636.45
2018-09-26T07:15:32.769Z,98640.07
2018-09-26T07:18:01.334Z,98647.44
2018-09-26T07:20:30.503Z,98646.66
2018-09-26T07:22:59.109Z,98653.97
2018-09-26T07:25:27.693Z,98662.14
2018-09-26T07:27:56.265Z,98660.78
2018-09-26T07:30:25.159Z,98665.54
2018-09-26T07:32:54.036Z,98673.08
2018-09-26T07:35:22.634Z,98671.28
2018-09-26T07:37:51.198Z,98666.41
2018-09-26T07:40:19.805Z,98663.66
2018-09-26T07:42:48.365Z,98666.50
2018-09-26T07:45:17.013Z,98669.82
2018-09-26T07:47:45.521Z,98665.92
2018-09-26T07:50:14.122Z,98659.23
2018-09-26T07:52:42.670Z,98656.33
2018-09-26T07:55:11.237Z,98658.52
2018-09-26T07:57:39.823Z,98671.38
2018-09-26T08:00:08.762Z,98660.84
2018-09-26T08:02:37.349Z,98650.33
2018-09-26T08:05:05.958Z,98644.04
2018-09-26T08:07:34.537Z,98647.70
2018-09-26T08:10:03.392Z,98654.09
2018-09-26T08:12:31.968Z,98647.80
2018-09-26T08:15:00.521Z,98643.81
2018-09-26T08:17:29.103Z,98641.02
2018-09-26T08:19:57.768Z,98640.88
2018-09-26T08:22:26.364Z,98646.08
2018-09-26T08:24:55.241Z,98635.39
2018-09-26T08:27:23.837Z,98643.52
2018-09-26T08:29:52.438Z,98646.70
2018-09-26T08:32:20.988Z,98639.03
2018-09-26T08:34:49.564Z,98642.92
2018-09-26T08:37:18.202Z,98646.05
2018-09-26T08:39:46.744Z,98635.91
2018-09-26T08:42:15.318Z,98639.77
2018-09-26T08:44:43.898Z,98642.69
2018-09-26T08:47:12.478Z,98632.14
2018-09-26T08:49:41.030Z,98633.85
2018-09-26T08:52:09.610Z,98637.19
2018-09-26T08:54:38.161Z,98639.89
2018-09-26T08:57:06.855Z,98632.61
2018-09-26T08:59:35.459Z,98644.63
2018-09-26T09:02:04.020Z,98649.25
2018-09-26T09:04:32.557Z,98644.50
2018-09-26T09:07:01.138Z,98655.88
2018-09-26T09:09:29.686Z,98658.27
2018-09-26T09:11:58.259Z,98641.35
2018-09-26T09:15:51.151Z,98641.03
2018-09-26T09:18:19.722Z,98645.02
2018-09-26T09:20:48.275Z,98646.65
2018-09-26T09:23:16.864Z,98629.67
2018-09-26T09:25:45.433Z,98637.63
2018-09-26T09:28:14.006Z,98636.30
2018-09-26T09:30:42.549Z,98646.41
2018-09-26T09:33:11.130Z,98633.50
2018-09-26T09:35:39.691Z,98631.01
2018-09-26T09:38:08.292Z,98646.96
2018-09-26T09:40:36.849Z,98649.48
2018-09-26T09:43:05.417Z,98655.20
2018-09-26T09:45:33.986Z,98641.27
2018-09-26T09:48:02.541Z,98635.95
2018-09-26T09:50:31.105Z,98638.69
2018-09-26T09:52:59.674Z,98641.38
2018-09-26T09:55:28.230Z,98644.70
2018-09-26T09:57:57.033Z,98634.42
2018-09-26T10:00:30.757Z,98634.36
2018-09-26T10:03:00.156Z,98639.89
2018-09-26T10:05:28.570Z,98633.73
2018-09-26T10:07:57.150Z,98634.31
2018-09-26T10:10:26.425Z,98634.06
2018-09-26T10:12:54.994Z,98630.86
2018-09-26T10:15:23.560Z,98628.32
2018-09-26T10:17:52.163Z,98625.03
2018-09-26T10:20:20.752Z,98628.62
2018-09-26T10:22:49.329Z,98625.66
2018-09-26T10:25:17.943Z,98618.83
2018-09-26T10:27:46.462Z,98612.92
2018-09-26T10:30:15.021Z,98606.66
2018-09-26T10:32:44.107Z,98605.79
2018-09-26T10:35:12.662Z,98606.09
2018-09-26T10:37:42.173Z,98613.13
2018-09-26T10:40:11.106Z,98606.84
2018-09-26T10:42:39.846Z,98607.04
2018-09-26T10:45:08.439Z,98607.27
2018-09-26T10:47:37.105Z,98614.22
2018-09-26T10:50:06.100Z,98606.39
2018-09-26T10:52:34.657Z,98594.75
2018-09-26T10:55:03.258Z,98595.44
2018-09-26T10:57:31.833Z,98587.50
2018-09-26T11:00:00.418Z,98588.59
2018-09-26T11:02:29.120Z,98584.52
2018-09-26T11:04:57.653Z,98584.58
2018-09-26T11:07:26.202Z,98590.20
2018-09-26T11:09:54.979Z,98593.12
2018-09-26T11:12:23.597Z,98591.11
2018-09-26T11:14:52.589Z,98587.90
2018-09-26T11:17:21.177Z,98579.97
2018-09-26T11:19:49.765Z,98584.88
2018-09-26T11:22:18.371Z,98586.53
2018-09-26T11:24:46.910Z,98582.06
2018-09-26T11:27:15.559Z,98573.28
2018-09-26T11:29:44.158Z,98577.40
2018-09-26T11:32:12.739Z,98579.14
2018-09-26T11:34:41.340Z,98573.09
2018-09-26T11:37:09.878Z,98567.89
2018-09-26T11:39:38.450Z,98570.03
2018-09-26T11:42:07.022Z,98567.59
2018-09-26T11:44:35.696Z,98564.89
2018-09-26T11:47:04.201Z,98561.27
2018-09-26T11:49:33.185Z,98558.47
2018-09-26T11:52:01.768Z,98555.35
2018-09-26T11:54:30.342Z,98551.84
2018-09-26T11:56:58.890Z,98555.00
2018-09-26T11:59:27.493Z,98557.86
2018-09-26T12:01:56.067Z,98561.64
2018-09-26T12:04:24.689Z,98560.37
2018-09-26T12:06:53.215Z,98562.28
2018-09-26T12:09:21.776Z,98553.56
2018-09-26T12:11:50.310Z,98555.42
2018-09-26T12:14:18.910Z,98559.94
2018-09-26T12:16:47.446Z,98555.53
2018-09-26T12:19:16.048Z,98549.52
2018-09-26T12:21:44.701Z,98536.27
2018-09-26T12:24:13.290Z,98532.73
2018-09-26T12:26:41.835Z,98536.21
2018-09-26T12:29:10.438Z,98538.91
2018-09-26T12:31:38.990Z,98535.18
2018-09-26T12:34:07.639Z,98531.55
2018-09-26T12:36:36.153Z,98520.33
2018-09-26T12:39:06.421Z,98523.06
2018-09-26T12:41:34.979Z,98526.41
2018-09-26T12:44:03.581Z,98530.02
2018-09-26T12:46:32.114Z,98535.41
2018-09-26T12:49:00.732Z,98528.39
2018-09-26T12:51:29.349Z,98531.91
2018-09-26T12:53:58.252Z,98527.91
2018-09-26T12:56:26.698Z,98522.48
2018-09-26T12:58:55.805Z,98523.27
2018-09-26T13:01:24.531Z,98522.82
2018-09-26T13:03:53.129Z,98526.16
2018-09-26T13:06:21.747Z,98513.98
2018-09-26T13:08:50.297Z,98517.31
2018-09-26T13:11:18.842Z,98507.70
2018-09-26T13:13:47.410Z,98500.94
2018-09-26T13:16:16.020Z,98514.91
2018-09-26T13:18:44.573Z,98510.70
2018-09-26T13:21:13.106Z,98510.26
2018-09-26T13:23:42.435Z,98512.43
2018-09-26T13:26:11.762Z,98509.08
2018-09-26T13:28:40.275Z,98511.89
2018-09-26T13:31:08.956Z,98500.63
2018-09-26T13:33:37.446Z,98498.52
2018-09-26T13:36:06.167Z,98492.05
2018-09-26T13:38:34.681Z,98499.13
2018-09-26T13:41:03.261Z,98495.56
2018-09-26T13:43:31.814Z,98493.17
2018-09-26T13:46:00.423Z,98491.69
2018-09-26T13:48:28.946Z,98484.25
2018-09-26T13:50:57.517Z,98488.92
2018-09-26T13:53:26.064Z,98484.44
2018-09-26T13:55:54.667Z,98484.48
2018-09-26T13:58:23.374Z,98483.27
2018-09-26T14:00:52.170Z,98479.38
2018-09-26T14:03:20.922Z,98474.20
2018-09-26T14:05:49.509Z,98482.16
2018-09-26T14:08:18.059Z,98475.13
2018-09-26T14:10:46.729Z,98480.55
2018-09-26T14:13:15.257Z,98468.94
2018-09-26T14:15:43.849Z,98474.09
2018-09-26T14:18:12.456Z,98467.09
2018-09-26T14:20:57.244Z,98474.09
2018-09-26T14:23:25.862Z,98462.50
2018-09-26T14:25:54.535Z,98462.84
2018-09-26T14:28:23.228Z,98467.22
2018-09-26T14:30:52.286Z,98462.63
2018-09-26T14:33:20.944Z,98463.22
2018-09-26T14:35:49.562Z,98462.08
2018-09-26T14:38:18.332Z,98466.22
2018-09-26T14:40:46.950Z,98462.63
2018-09-26T14:43:15.583Z,98467.56
2018-09-26T14:45:44.387Z,98460.34
2018-09-26T14:48:12.930Z,98458.44
2018-09-26T14:50:41.573Z,98456.22
2018-09-26T14:53:10.231Z,98456.83
2018-09-26T14:55:38.889Z,98450.61
2018-09-26T14:58:07.835Z,98452.16
2018-09-26T15:00:36.578Z,98456.96
2018-09-26T15:03:05.207Z,98449.97
2018-09-26T15:05:33.865Z,98443.53
2018-09-26T15:08:02.484Z,98444.91
2018-09-26T15:10:31.550Z,98436.35
2018-09-26T15:13:00.183Z,98437.23
2018-09-26T15:15:29.162Z,98439.47
2018-09-26T15:18:00.045Z,98443.17
2018-09-26T15:20:28.765Z,98437.83
2018-09-26T15:22:57.397Z,98435.89
2018-09-26T15:25:28.163Z,98426.08
2018-09-26T15:27:56.946Z,98428.52
2018-09-26T15:30:25.969Z,98429.80
2018-09-26T15:32:54.566Z,98424.15
2018-09-26T15:35:23.335Z,98427.28
2018-09-26T15:37:53.590Z,98423.39
2018-09-26T15:40:22.707Z,98426.98
2018-09-26T15:42:51.487Z,98435.62
2018-09-26T15:45:20.145Z,98429.45
2018-09-26T15:47:51.322Z,98427.77
2018-09-26T15:50:21.170Z,98426.91
2018-09-26T15:52:49.802Z,98422.46
2018-09-26T15:55:18.432Z,98426.59
2018-09-26T15:57:47.131Z,98425.81
2018-09-26T16:00:15.780Z,98426.26
2018-09-26T16:02:44.515Z,98424.67
2018-09-26T16:05:13.166Z,98416.55
2018-09-26T16:07:41.723Z,98419.86
2018-09-26T16:10:10.309Z,98412.47
2018-09-26T16:12:38.872Z,98408.83
2018-09-26T16:15:07.463Z,98417.81
2018-09-26T16:17:36.003Z,98411.52
2018-09-26T16:20:04.719Z,98409.41
2018-09-26T16:22:33.275Z,98399.91
2018-09-26T16:25:02.173Z,98408.72
2018-09-26T16:27:30.878Z,98409.39
2018-09-26T16:29:59.689Z,98405.93
2018-09-26T16:32:28.252Z,98411.45
2018-09-26T16:34:56.836Z,98404.78
2018-09-26T16:37:25.731Z,98405.31
2018-09-26T16:39:54.291Z,98407.77
2018-09-26T16:42:22.930Z,98403.39
2018-09-26T16:44:51.527Z,98401.19
2018-09-26T16:47:20.398Z,98397.27
2018-09-26T16:49:48.986Z,98401.53
2018-09-26T16:52:18.397Z,98402.48
2018-09-26T16:54:47.369Z,98414.59
2018-09-26T16:57:15.958Z,98417.23
2018-09-26T16:59:44.518Z,98418.45
2018-09-26T17:02:13.849Z,98419.09
2018-09-26T17:04:42.457Z,98420.25
2018-09-26T17:07:11.070Z,98419.70
2018-09-26T17:09:39.633Z,98424.25
2018-09-26T17:12:08.263Z,98427.08
2018-09-26T17:14:36.818Z,98425.09
2018-09-26T17:17:05.563Z,98427.69
2018-09-26T17:19:34.222Z,98425.17
2018-09-26T17:22:02.812Z,98429.17
2018-09-26T17:24:31.374Z,98431.42
2018-09-26T17:26:59.938Z,98433.00
2018-09-26T17:29:28.607Z,98429.22
2018-09-26T17:31:57.462Z,98431.69
2018-09-26T17:34:26.079Z,98432.53
2018-09-26T17:36:54.728Z,98441.70
2018-09-26T17:39:23.286Z,98440.63
2018-09-26T17:41:51.911Z,98449.02
2018-09-26T17:44:20.490Z,98443.47
2018-09-26T17:46:49.074Z,98452.55
2018-09-26T17:49:17.670Z,98454.27
2018-09-26T17:51:46.223Z,98449.06
2018-09-26T17:54:14.819Z,98459.63
2018-09-26T17:56:43.377Z,98461.50
2018-09-26T17:59:11.944Z,98459.13
2018-09-26T18:01:40.534Z,98457.13
2018-09-26T18:04:09.136Z,98459.98
2018-09-26T18:06:37.718Z,98460.84
2018-09-26T18:09:08.972Z,98455.16
2018-09-26T18:11:37.559Z,98462.48
2018-09-26T18:14:06.222Z,98457.11
2018-09-26T18:16:34.810Z,98461.40
2018-09-26T18:19:03.381Z,98458.70
2018-09-26T18:21:32.010Z,98460.52
2018-09-26T18:24:01.446Z,98451.69
2018-09-26T18:26:30.037Z,98457.57
2018-09-26T18:28:58.586Z,98464.90
2018-09-26T18:31:27.686Z,98460.35
2018-09-26T18:33:56.217Z,98464.48
2018-09-26T18:36:24.827Z,98466.38
2018-09-26T18:38:53.474Z,98465.37
2018-09-26T18:41:22.027Z,98467.09
2018-09-26T18:43:50.580Z,98457.58
2018-09-26T18:46:19.139Z,98457.11
2018-09-26T18:48:47.722Z,98463.34
2018-09-26T18:51:16.296Z,98464.73
2018-09-26T18:53:44.858Z,98461.70
2018-09-26T18:56:13.394Z,98469.19
2018-09-26T18:58:42.038Z,98467.41
2018-09-26T19:01:10.598Z,98465.48
2018-09-26T19:03:39.149Z,98470.33
2018-09-26T19:06:07.736Z,98470.81
2018-09-26T19:08:36.314Z,98471.36
2018-09-26T19:11:05.066Z,98475.03
2018-09-26T19:13:33.682Z,98475.41
2018-09-26T19:16:02.213Z,98481.55
2018-09-26T19:18:30.782Z,98493.02
2018-09-26T19:20:59.360Z,98488.73
2018-09-26T19:23:27.930Z,98486.94
2018-09-26T19:25:56.511Z,98489.27
2018-09-26T19:28:25.065Z,98488.06
2018-09-26T19:30:53.634Z,98483.14
2018-09-26T19:33:22.227Z,98475.61
2018-09-26T19:35:50.872Z,98473.83
2018-09-26T19:38:19.450Z,98474.82
2018-09-26T19:40:47.991Z,98469.83
2018-09-26T19:43:19.632Z,98469.66
2018-09-26T19:45:48.267Z,98472.41
2018-09-26T19:48:17.279Z,98471.77
2018-09-26T19:50:45.831Z,98473.55
2018-09-26T19:53:14.418Z,98474.00
2018-09-26T19:55:42.987Z,98478.52
2018-09-26T19:58:12.474Z,98484.83
2018-09-26T20:00:41.034Z,98483.38
2018-09-26T20:03:09.633Z,98485.33
2018-09-26T20:05:38.206Z,98484.31
2018-09-26T20:08:07.127Z,98472.84
2018-09-26T20:10:35.677Z,98483.77
2018-09-26T20:13:04.270Z,98484.08
2018-09-26T20:15:32.818Z,98487.27
2018-09-26T20:18:01.497Z,98489.27
2018-09-26T20:20:30.065Z,98490.89
2018-09-26T20:22:58.663Z,98485.45
2018-09-26T20:25:27.212Z,98490.06
2018-09-26T20:27:55.810Z,98491.95
2018-09-26T20:30:24.350Z,98487.42
2018-09-26T20:32:52.974Z,98483.83
2018-09-26T20:35:21.541Z,98485.34
2018-09-26T20:37:50.086Z,98488.02
2018-09-26T20:40:18.627Z,98479.08
2018-09-26T20:42:47.201Z,98486.70
2018-09-26T20:45:15.816Z,98484.85
2018-09-26T20:47:44.341Z,98480.52
2018-09-26T20:50:12.874Z,98488.36
2018-09-26T20:52:41.442Z,98484.14
2018-09-26T20:55:10.007Z,98485.15
2018-09-26T20:57:38.857Z,98478.57
2018-09-26T21:00:07.471Z,98482.27
2018-09-26T21:02:36.065Z,98485.77
2018-09-26T21:05:04.861Z,98479.20
2018-09-26T21:07:33.410Z,98478.16
2018-09-26T21:10:02.007Z,98481.67
2018-09-26T21:12:30.557Z,98485.28
2018-09-26T21:15:01.006Z,98482.08
2018-09-26T21:17:29.598Z,98488.14
2018-09-26T21:19:58.145Z,98495.03
2018-09-26T21:22:26.696Z,98497.40
2018-09-26T21:24:55.255Z,98496.78
2018-09-26T21:27:24.614Z,98493.73
2018-09-26T21:29:53.194Z,98493.11
2018-09-26T21:32:21.748Z,98487.80
2018-09-26T21:34:50.314Z,98487.98
2018-09-26T21:37:18.862Z,98494.56
2018-09-26T21:39:47.515Z,98496.81
2018-09-26T21:42:16.068Z,98500.30
2018-09-26T21:44:44.662Z,98500.52
2018-09-26T21:47:13.590Z,98494.78
2018-09-26T21:49:42.167Z,98485.40
2018-09-26T21:52:10.729Z,98487.56
2018-09-26T21:54:39.299Z,98488.75
2018-09-26T21:57:08.106Z,98490.00
2018-09-26T21:59:36.665Z,98487.52
2018-09-26T22:02:05.226Z,98485.55
2018-09-26T22:04:33.779Z,98478.75
2018-09-26T22:07:02.334Z,98477.63
2018-09-26T22:09:30.897Z,98479.05
2018-09-26T22:12:00.447Z,98482.54
2018-09-26T22:14:28.997Z,98478.36
2018-09-26T22:16:57.546Z,98477.29
2018-09-26T22:19:26.170Z,98481.08
2018-09-26T22:21:54.721Z,98475.86
2018-09-26T22:24:23.310Z,98473.77
2018-09-26T22:26:51.849Z,98480.66
2018-09-26T22:29:20.418Z,98478.63
2018-09-26T22:31:48.957Z,98480.38
2018-09-26T22:34:17.546Z,98488.52
2018-09-26T22:36:46.093Z,98482.29
2018-09-26T22:39:14.687Z,98494.31
2018-09-26T22:41:43.229Z,98496.44
2018-09-26T22:44:11.794Z,98488.98
2018-09-26T22:46:40.331Z,98494.70
2018-09-26T22:49:08.897Z,98496.08
2018-09-26T22:51:37.463Z,98493.01
2018-09-26T22:54:06.037Z,98494.48
2018-09-26T22:56:34.671Z,98494.70
2018-09-26T22:59:03.271Z,98490.88
2018-09-26T23:01:31.992Z,98486.95
2018-09-26T23:04:00.562Z,98478.94
2018-09-26T23:06:29.131Z,98482.54
2018-09-26T23:08:57.697Z,98485.77
2018-09-26T23:11:26.249Z,98488.62
2018-09-26T23:13:54.830Z,98483.98
2018-09-26T23:16:23.369Z,98487.10
2018-09-26T23:18:51.974Z,98484.53
2018-09-26T23:21:21.207Z,98471.27
2018-09-26T23:23:49.791Z,98477.39
2018-09-26T23:26:18.330Z,98477.56
2018-09-26T23:28:46.882Z,98481.34
2018-09-26T23:31:15.435Z,98484.30
2018-09-26T23:33:43.998Z,98476.61
2018-09-26T23:36:12.526Z,98479.96
2018-09-26T23:38:41.095Z,98472.75
2018-09-26T23:41:09.694Z,98472.24
2018-09-26T23:43:38.229Z,98472.84
2018-09-26T23:46:06.906Z,98465.15
2018-09-26T23:48:35.882Z,98460.78
2018-09-26T23:51:04.449Z,98450.93
2018-09-26T23:53:33.034Z,98452.40
2018-09-26T23:56:01.606Z,98448.35
2018-09-26T23:58:30.146Z,98451.76
